Terminal Aerodrome Forecast
Issued by NWS

Home | Current Version | Previous Version | Text Only | Print | Product List | Glossary On
Versions: 1 2 3 4 5 6 7 8 9 10 11 12 13 14
000
FTAK31 PAJN 191100
TAFAJN
TAF
PAJN 191120Z 1912/2012 07003KT P6SM FEW002 SCT100
     FM191400 VRB05KT P6SM FEW100 BKN150
     FM191800 25007KT P6SM BKN120
     FM200300 VRB04KT P6SM BKN100
     FM201100 10010KT P6SM -RA BKN050 OVC100=

USA.gov is the U.S. government's official web portal to all federal, state and local government web resources and services.